Time;durP1;ratioP1;P1;durP2;ratioP2;P2;SDS_P1;SDS_P2;PMS_P1;PMS_P2;Temp;Humidity;BMP_temperature;BMP_pressure;BME280_temperature;BME280_humidity;BME280_pressure;Samples;Min_cycle;Max_cycle;Signal;HPM_P1;HPM_P2
2021/05/05 00:00:55;;;;;;;2.65;2.35;;;;;;;;;;5040204;28;20029;-41
2021/05/05 00:03:20;;;;;;;7.15;3.47;;;;;;;;;;5039847;28;20034;-43
2021/05/05 00:05:45;;;;;;;4.70;2.75;;;;;;;;;;5044222;28;20025;-41
2021/05/05 00:08:10;;;;;;;9.55;3.22;;;;;;;;;;5034151;28;20029;-43
2021/05/05 00:10:36;;;;;;;10.57;2.80;;;;;;;;;;5037844;28;20523;-43
2021/05/05 00:13:01;;;;;;;3.17;2.40;;;;;;;;;;5035732;28;20479;-42
2021/05/05 00:15:27;;;;;;;5.47;3.53;;;;;;;;;;5035647;28;20087;-44
2021/05/05 00:17:52;;;;;;;3.42;2.33;;;;;;;;;;5036979;28;20025;-44
2021/05/05 00:20:20;;;;;;;4.75;3.75;;;;;;;;;;5039591;28;20026;-44
2021/05/05 00:22:46;;;;;;;3.47;2.67;;;;;;;;;;5040767;28;20028;-44
2021/05/05 00:25:11;;;;;;;2.95;2.10;;;;;;;;;;5037620;28;20025;-42
2021/05/05 00:27:37;;;;;;;7.38;2.53;;;;;;;;;;5036559;28;20028;-45
2021/05/05 00:30:04;;;;;;;3.15;2.83;;;;;;;;;;5039492;28;20033;-42
2021/05/05 00:32:29;;;;;;;3.50;3.08;;;;;;;;;;5032055;28;20030;-41
2021/05/05 00:34:55;;;;;;;2.97;2.28;;;;;;;;;;5023538;28;20035;-43
2021/05/05 00:37:20;;;;;;;4.95;3.63;;;;;;;;;;5037851;28;20543;-44
2021/05/05 00:39:46;;;;;;;4.22;2.70;;;;;;;;;;5038281;28;20031;-43
2021/05/05 00:42:11;;;;;;;7.70;3.20;;;;;;;;;;5036387;28;20396;-41
2021/05/05 00:44:36;;;;;;;3.35;2.45;;;;;;;;;;5038255;28;20393;-43
2021/05/05 00:47:02;;;;;;;2.95;2.05;;;;;;;;;;5034416;28;20473;-41
2021/05/05 00:49:27;;;;;;;5.80;3.28;;;;;;;;;;5038206;28;20402;-42
2021/05/05 00:51:53;;;;;;;38.38;35.67;;;;;;;;;;5035514;28;20079;-43
2021/05/05 00:54:18;;;;;;;3.88;3.08;;;;;;;;;;5037951;28;20217;-43
2021/05/05 00:56:44;;;;;;;2.33;1.40;;;;;;;;;;5038317;28;20529;-43
2021/05/05 00:59:09;;;;;;;2.85;1.60;;;;;;;;;;5038351;28;20519;-46
2021/05/05 01:01:34;;;;;;;1.95;1.58;;;;;;;;;;5037883;28;20029;-45
2021/05/05 01:03:59;;;;;;;4.88;2.30;;;;;;;;;;5038025;28;20094;-44
2021/05/05 01:06:25;;;;;;;3.05;1.90;;;;;;;;;;5035505;28;20699;-42
2021/05/05 01:08:50;;;;;;;1.50;0.95;;;;;;;;;;5034278;28;20112;-45
2021/05/05 01:11:16;;;;;;;5.00;1.63;;;;;;;;;;5035859;28;20029;-42
2021/05/05 01:13:44;;;;;;;4.22;1.75;;;;;;;;;;5039700;28;20079;-40
2021/05/05 01:16:13;;;;;;;2.90;1.77;;;;;;;;;;5037809;28;20040;-41
2021/05/05 01:18:38;;;;;;;3.67;2.80;;;;;;;;;;5036051;28;20126;-43
2021/05/05 01:21:03;;;;;;;5.63;2.85;;;;;;;;;;5039787;28;20083;-44
2021/05/05 01:23:29;;;;;;;2.47;1.85;;;;;;;;;;5039245;28;20388;-42
2021/05/05 01:25:54;;;;;;;5.85;2.92;;;;;;;;;;5034348;28;20037;-41
2021/05/05 01:28:20;;;;;;;1.92;1.48;;;;;;;;;;5039850;28;20449;-45
2021/05/05 01:30:46;;;;;;;2.47;1.83;;;;;;;;;;5031645;28;20037;-41
2021/05/05 01:33:11;;;;;;;7.38;3.15;;;;;;;;;;5034873;28;20047;-41
2021/05/05 01:35:39;;;;;;;3.80;1.63;;;;;;;;;;5035847;28;20118;-44
2021/05/05 01:38:04;;;;;;;8.50;2.17;;;;;;;;;;5038918;28;20094;-44
2021/05/05 01:40:31;;;;;;;12.27;1.80;;;;;;;;;;5037900;28;20468;-40
2021/05/05 01:42:57;;;;;;;2.20;1.75;;;;;;;;;;5037456;28;20021;-42
2021/05/05 01:45:23;;;;;;;1.98;1.25;;;;;;;;;;5035818;28;20135;-46
2021/05/05 01:47:53;;;;;;;3.85;1.40;;;;;;;;;;5034907;28;20375;-43
2021/05/05 01:50:18;;;;;;;3.15;2.00;;;;;;;;;;5036651;28;20087;-43
2021/05/05 01:52:43;;;;;;;2.40;1.58;;;;;;;;;;5032506;28;20026;-44
2021/05/05 01:55:09;;;;;;;3.83;1.50;;;;;;;;;;5040825;28;20485;-42
2021/05/05 01:57:39;;;;;;;2.13;1.35;;;;;;;;;;5035295;28;20093;-43
2021/05/05 02:00:12;;;;;;;1.80;1.27;;;;;;;;;;5034842;28;20049;-42
2021/05/05 02:02:38;;;;;;;2.33;1.58;;;;;;;;;;5039977;28;20542;-41
2021/05/05 02:05:04;;;;;;;2.20;1.17;;;;;;;;;;5038109;28;20496;-42
2021/05/05 02:07:29;;;;;;;3.83;1.58;;;;;;;;;;5035736;28;20033;-47
2021/05/05 02:09:55;;;;;;;4.85;1.50;;;;;;;;;;5035373;28;20083;-44
2021/05/05 02:12:21;;;;;;;26.17;2.80;;;;;;;;;;5036466;28;20039;-41
2021/05/05 02:14:47;;;;;;;3.13;1.98;;;;;;;;;;5035313;28;20028;-40
2021/05/05 02:17:12;;;;;;;2.40;1.98;;;;;;;;;;5035746;28;20501;-41
2021/05/05 02:19:37;;;;;;;3.70;2.78;;;;;;;;;;5037365;28;20052;-45
2021/05/05 02:22:03;;;;;;;3.15;2.20;;;;;;;;;;5035573;28;20017;-45
2021/05/05 02:24:28;;;;;;;4.70;2.65;;;;;;;;;;5034010;28;20041;-47
2021/05/05 02:26:53;;;;;;;2.80;1.95;;;;;;;;;;5018915;28;20037;-41
2021/05/05 02:29:19;;;;;;;5.93;2.80;;;;;;;;;;5036923;28;20033;-43
2021/05/05 02:31:44;;;;;;;3.10;2.60;;;;;;;;;;5032462;28;20087;-42
2021/05/05 02:34:10;;;;;;;5.90;3.40;;;;;;;;;;5035493;28;20049;-41
2021/05/05 02:36:36;;;;;;;5.38;3.40;;;;;;;;;;5037842;28;20033;-41
2021/05/05 02:39:03;;;;;;;2.75;1.85;;;;;;;;;;5034752;28;20086;-41
2021/05/05 02:41:28;;;;;;;6.82;3.10;;;;;;;;;;5035806;28;20026;-42
2021/05/05 02:43:54;;;;;;;4.00;3.05;;;;;;;;;;5017152;28;20154;-42
2021/05/05 02:46:19;;;;;;;5.28;3.03;;;;;;;;;;5038190;28;20068;-45
2021/05/05 02:48:44;;;;;;;4.82;2.83;;;;;;;;;;5038226;28;20044;-40
2021/05/05 02:51:10;;;;;;;4.00;2.15;;;;;;;;;;5037093;28;20064;-44
2021/05/05 02:53:35;;;;;;;4.63;2.97;;;;;;;;;;5033819;28;20462;-41
2021/05/05 02:56:00;;;;;;;1.80;1.30;;;;;;;;;;5032936;28;20036;-40
2021/05/05 02:58:26;;;;;;;5.25;1.98;;;;;;;;;;5039724;28;20024;-41
2021/05/05 03:00:51;;;;;;;10.95;2.70;;;;;;;;;;5036581;28;20431;-42
2021/05/05 03:03:17;;;;;;;4.93;2.35;;;;;;;;;;5035039;28;20017;-43
2021/05/05 03:05:42;;;;;;;2.70;1.92;;;;;;;;;;5034754;28;20102;-41
2021/05/05 03:08:07;;;;;;;4.57;2.67;;;;;;;;;;5034121;28;20021;-42
2021/05/05 03:10:33;;;;;;;7.53;2.97;;;;;;;;;;5031423;28;20065;-42
2021/05/05 03:12:58;;;;;;;1.90;1.42;;;;;;;;;;5038106;28;20037;-43
2021/05/05 03:15:23;;;;;;;8.55;3.00;;;;;;;;;;5016425;28;20033;-43
2021/05/05 03:17:49;;;;;;;4.07;3.25;;;;;;;;;;5031878;28;20033;-43
2021/05/05 03:20:14;;;;;;;9.55;2.17;;;;;;;;;;5037731;28;20038;-42
2021/05/05 03:22:39;;;;;;;2.22;1.95;;;;;;;;;;5035248;28;20036;-41
2021/05/05 03:25:09;;;;;;;6.22;2.60;;;;;;;;;;5038557;28;20068;-41
2021/05/05 03:27:34;;;;;;;5.07;2.35;;;;;;;;;;5039205;28;20021;-45
2021/05/05 03:29:59;;;;;;;2.88;2.50;;;;;;;;;;5039515;28;20515;-42
2021/05/05 03:32:25;;;;;;;3.95;2.42;;;;;;;;;;5037108;28;20499;-40
2021/05/05 03:34:50;;;;;;;3.33;2.50;;;;;;;;;;5036485;28;20040;-41
2021/05/05 03:37:15;;;;;;;3.45;2.75;;;;;;;;;;5041165;28;20013;-47
2021/05/05 03:39:41;;;;;;;3.30;2.65;;;;;;;;;;5038054;28;20038;-41
2021/05/05 03:42:06;;;;;;;3.60;2.35;;;;;;;;;;5020832;28;20109;-44
2021/05/05 03:44:31;;;;;;;4.78;2.72;;;;;;;;;;5040913;28;20055;-41
2021/05/05 03:46:57;;;;;;;2.67;1.80;;;;;;;;;;5035398;28;20095;-41
2021/05/05 03:49:22;;;;;;;3.22;2.15;;;;;;;;;;5035650;28;20029;-48
2021/05/05 03:51:48;;;;;;;3.83;2.03;;;;;;;;;;5039850;28;20039;-40
2021/05/05 03:54:14;;;;;;;2.35;1.52;;;;;;;;;;5041278;28;20021;-45
2021/05/05 03:56:40;;;;;;;2.55;1.67;;;;;;;;;;5037159;28;20416;-44
2021/05/05 03:59:05;;;;;;;1.92;1.33;;;;;;;;;;5040582;28;20009;-45
2021/05/05 04:01:30;;;;;;;2.33;1.42;;;;;;;;;;5039747;28;20043;-42
2021/05/05 04:03:55;;;;;;;6.18;2.17;;;;;;;;;;5037858;28;20029;-41
2021/05/05 04:06:21;;;;;;;4.25;1.70;;;;;;;;;;5036632;28;20082;-43
2021/05/05 04:08:46;;;;;;;4.28;2.15;;;;;;;;;;5040952;28;20078;-42
2021/05/05 04:11:11;;;;;;;5.30;1.60;;;;;;;;;;5042600;28;20791;-42
2021/05/05 04:13:37;;;;;;;5.35;1.73;;;;;;;;;;5039717;28;20013;-41
2021/05/05 04:16:02;;;;;;;6.30;2.53;;;;;;;;;;5040455;28;20132;-41
2021/05/05 04:18:28;;;;;;;2.17;1.27;;;;;;;;;;5041355;28;20100;-41
2021/05/05 04:20:57;;;;;;;2.67;1.90;;;;;;;;;;5039179;28;20029;-43
2021/05/05 04:23:22;;;;;;;4.68;2.60;;;;;;;;;;5037222;28;20021;-42
2021/05/05 04:25:48;;;;;;;3.30;1.98;;;;;;;;;;5039979;28;20040;-41
2021/05/05 04:28:14;;;;;;;1.95;1.42;;;;;;;;;;5041317;28;20010;-42
2021/05/05 04:30:39;;;;;;;3.42;2.13;;;;;;;;;;5040563;28;20124;-45
2021/05/05 04:33:04;;;;;;;7.47;2.72;;;;;;;;;;5040102;28;20025;-44
2021/05/05 04:35:30;;;;;;;2.85;2.22;;;;;;;;;;5041879;28;20099;-41
2021/05/05 04:37:55;;;;;;;10.15;3.10;;;;;;;;;;5040039;28;20952;-44
2021/05/05 04:40:21;;;;;;;5.00;3.47;;;;;;;;;;5038200;28;20053;-42
2021/05/05 04:42:46;;;;;;;2.97;2.03;;;;;;;;;;5037436;28;20359;-42
2021/05/05 04:45:11;;;;;;;6.75;3.88;;;;;;;;;;5041563;28;20175;-44
2021/05/05 04:47:38;;;;;;;9.90;2.90;;;;;;;;;;5042955;28;20135;-40
2021/05/05 04:50:04;;;;;;;3.80;2.55;;;;;;;;;;5037111;28;20034;-41
2021/05/05 04:52:29;;;;;;;7.00;4.45;;;;;;;;;;5039765;28;20424;-41
2021/05/05 04:54:55;;;;;;;5.97;4.22;;;;;;;;;;5038993;28;20036;-43
2021/05/05 04:57:20;;;;;;;7.53;2.58;;;;;;;;;;5040519;28;20090;-42
2021/05/05 04:59:46;;;;;;;3.72;3.33;;;;;;;;;;5038132;28;20095;-42
2021/05/05 05:02:11;;;;;;;3.40;2.88;;;;;;;;;;5039100;28;20071;-43
2021/05/05 05:04:40;;;;;;;4.70;2.92;;;;;;;;;;5040862;28;20067;-43
2021/05/05 05:07:06;;;;;;;3.13;1.92;;;;;;;;;;5040067;28;20036;-44
2021/05/05 05:09:31;;;;;;;2.10;1.90;;;;;;;;;;5039218;28;20017;-42
2021/05/05 05:11:56;;;;;;;1.90;1.52;;;;;;;;;;5040512;28;20482;-47
2021/05/05 05:14:22;;;;;;;3.80;2.35;;;;;;;;;;5040529;28;20389;-43
2021/05/05 05:16:47;;;;;;;3.17;2.40;;;;;;;;;;5042960;28;20028;-42
2021/05/05 05:19:12;;;;;;;8.73;2.33;;;;;;;;;;5039347;28;20461;-44
2021/05/05 05:21:37;;;;;;;7.00;3.83;;;;;;;;;;5041173;28;20060;-45
2021/05/05 05:24:03;;;;;;;13.55;3.60;;;;;;;;;;5037488;28;20014;-42
2021/05/05 05:26:28;;;;;;;12.57;4.10;;;;;;;;;;5034919;28;20029;-42
2021/05/05 05:28:54;;;;;;;9.43;4.22;;;;;;;;;;5040078;28;20025;-44
2021/05/05 05:31:19;;;;;;;4.53;3.25;;;;;;;;;;5039947;28;20040;-47
2021/05/05 05:33:44;;;;;;;6.68;3.28;;;;;;;;;;5039256;28;20048;-44
2021/05/05 05:36:10;;;;;;;5.88;4.20;;;;;;;;;;5038744;28;20075;-43
2021/05/05 05:38:35;;;;;;;12.80;4.55;;;;;;;;;;5038395;28;20476;-43
2021/05/05 05:41:00;;;;;;;7.13;4.18;;;;;;;;;;5041341;28;20029;-46
2021/05/05 05:43:25;;;;;;;6.35;5.75;;;;;;;;;;5040567;28;20528;-42
2021/05/05 05:45:51;;;;;;;7.63;3.33;;;;;;;;;;5038965;28;20102;-46
2021/05/05 05:48:17;;;;;;;4.13;3.20;;;;;;;;;;5042616;28;20436;-46
2021/05/05 05:50:42;;;;;;;6.78;5.75;;;;;;;;;;5037471;28;20024;-50
2021/05/05 05:53:07;;;;;;;6.82;4.72;;;;;;;;;;5040387;28;20025;-44
2021/05/05 05:55:34;;;;;;;10.98;3.75;;;;;;;;;;5036372;28;20036;-43
2021/05/05 05:57:59;;;;;;;7.95;7.15;;;;;;;;;;5039628;28;20474;-44
2021/05/05 06:00:25;;;;;;;21.67;17.40;;;;;;;;;;5039425;28;20025;-42
2021/05/05 06:02:51;;;;;;;42.75;20.63;;;;;;;;;;5040246;28;20048;-47
2021/05/05 06:05:16;;;;;;;20.08;18.02;;;;;;;;;;5039746;28;20037;-42
2021/05/05 06:07:42;;;;;;;15.15;13.40;;;;;;;;;;5040865;28;20530;-42
2021/05/05 06:10:08;;;;;;;15.38;13.73;;;;;;;;;;5042183;28;20052;-43
2021/05/05 06:12:33;;;;;;;12.93;11.60;;;;;;;;;;5036611;28;20106;-42
2021/05/05 06:14:59;;;;;;;29.70;11.93;;;;;;;;;;5038762;28;20489;-43
2021/05/05 06:17:25;;;;;;;18.20;12.55;;;;;;;;;;5041348;28;20017;-44
2021/05/05 06:19:50;;;;;;;22.13;9.90;;;;;;;;;;5039774;28;20029;-43
2021/05/05 06:22:15;;;;;;;11.00;9.75;;;;;;;;;;5036990;28;20025;-42
2021/05/05 06:24:40;;;;;;;10.80;9.32;;;;;;;;;;5036823;28;20030;-41
2021/05/05 06:27:07;;;;;;;9.15;7.85;;;;;;;;;;5039457;28;20028;-42
2021/05/05 06:29:32;;;;;;;10.23;9.10;;;;;;;;;;5036438;28;20048;-42
2021/05/05 06:31:57;;;;;;;14.88;9.18;;;;;;;;;;5037843;28;20426;-45
2021/05/05 06:34:22;;;;;;;10.50;8.20;;;;;;;;;;5039135;28;20095;-42
2021/05/05 06:36:48;;;;;;;14.50;9.88;;;;;;;;;;5035973;28;20488;-44
2021/05/05 06:39:13;;;;;;;22.30;13.40;;;;;;;;;;5037126;28;20025;-48
2021/05/05 06:41:39;;;;;;;30.45;23.00;;;;;;;;;;5034473;28;20086;-41
2021/05/05 06:44:05;;;;;;;42.95;32.10;;;;;;;;;;5041229;28;20024;-43
2021/05/05 06:46:31;;;;;;;21.70;17.38;;;;;;;;;;5041246;28;20079;-45
2021/05/05 06:48:57;;;;;;;26.42;17.55;;;;;;;;;;5024330;28;20029;-41
2021/05/05 06:51:23;;;;;;;11.07;8.85;;;;;;;;;;5043760;28;20032;-42
2021/05/05 06:53:48;;;;;;;6.55;5.35;;;;;;;;;;5042606;28;20013;-42
2021/05/05 06:56:13;;;;;;;6.03;5.05;;;;;;;;;;5020479;28;20508;-42
2021/05/05 06:58:39;;;;;;;16.17;11.82;;;;;;;;;;5038099;28;20013;-42
2021/05/05 07:01:04;;;;;;;30.27;20.92;;;;;;;;;;5040375;28;20069;-42
2021/05/05 07:03:29;;;;;;;79.18;46.95;;;;;;;;;;5041183;28;20028;-42
2021/05/05 07:05:55;;;;;;;52.47;35.45;;;;;;;;;;5025868;28;20021;-44
2021/05/05 07:08:20;;;;;;;50.30;45.15;;;;;;;;;;5040020;28;20022;-44
2021/05/05 07:10:45;;;;;;;59.38;48.40;;;;;;;;;;5042327;28;20033;-41
2021/05/05 07:13:10;;;;;;;55.20;38.22;;;;;;;;;;5044073;28;20020;-42
2021/05/05 07:15:36;;;;;;;36.35;24.45;;;;;;;;;;5041374;28;20473;-45
2021/05/05 07:18:01;;;;;;;26.55;18.02;;;;;;;;;;5042169;28;20087;-43
2021/05/05 07:20:26;;;;;;;27.17;21.88;;;;;;;;;;5039713;28;20064;-42
2021/05/05 07:22:52;;;;;;;47.42;31.95;;;;;;;;;;5042077;28;20130;-43
2021/05/05 07:25:17;;;;;;;49.63;35.63;;;;;;;;;;5038687;28;20469;-43
2021/05/05 07:27:42;;;;;;;33.83;27.45;;;;;;;;;;5038379;28;20026;-41
2021/05/05 07:30:09;;;;;;;12.82;10.73;;;;;;;;;;5043024;28;20036;-42
2021/05/05 07:32:34;;;;;;;15.38;9.75;;;;;;;;;;5042495;28;20111;-40
2021/05/05 07:35:02;;;;;;;4.53;3.65;;;;;;;;;;5041118;28;20115;-42
2021/05/05 07:38:13;;;;;;;3.25;2.40;;;;;;;;;;5041878;28;20013;-41
2021/05/05 07:47:56;;;;;;;2.60;2.22;;;;;;;;;;5042570;28;20104;-47
2021/05/05 07:50:22;;;;;;;2.95;1.50;;;;;;;;;;5039712;28;20041;-38
2021/05/05 07:52:47;;;;;;;11.02;3.25;;;;;;;;;;5022833;28;20401;-41
2021/05/05 07:55:13;;;;;;;3.33;2.35;;;;;;;;;;5042400;28;20488;-40
2021/05/05 07:57:41;;;;;;;9.65;1.42;;;;;;;;;;5033829;28;20017;-41
2021/05/05 08:00:07;;;;;;;9.40;1.65;;;;;;;;;;5039648;28;20124;-43
2021/05/05 08:02:32;;;;;;;4.90;1.67;;;;;;;;;;5043538;28;20013;-41
2021/05/05 08:04:57;;;;;;;10.40;2.35;;;;;;;;;;5040244;28;20036;-40
2021/05/05 08:07:23;;;;;;;3.67;1.48;;;;;;;;;;5040222;28;20078;-40
2021/05/05 08:09:48;;;;;;;3.90;2.95;;;;;;;;;;5040359;28;20033;-39
2021/05/05 08:12:14;;;;;;;4.57;2.50;;;;;;;;;;5040956;28;20087;-40
2021/05/05 08:14:40;;;;;;;1.85;1.02;;;;;;;;;;5039567;28;20029;-38
2021/05/05 08:17:06;;;;;;;12.20;2.85;;;;;;;;;;5043936;28;20052;-38
2021/05/05 08:19:32;;;;;;;9.77;3.78;;;;;;;;;;5041578;28;20021;-40
2021/05/05 08:21:57;;;;;;;3.85;2.35;;;;;;;;;;5042366;28;20036;-41
2021/05/05 08:24:23;;;;;;;2.75;1.17;;;;;;;;;;5044303;28;20025;-38
2021/05/05 08:26:48;;;;;;;1.92;1.20;;;;;;;;;;5040646;28;20474;-42
2021/05/05 08:29:13;;;;;;;3.72;1.30;;;;;;;;;;5042754;28;20021;-40
2021/05/05 08:31:39;;;;;;;7.15;2.05;;;;;;;;;;5039737;28;20478;-40
2021/05/05 08:34:04;;;;;;;5.10;1.35;;;;;;;;;;5038073;28;20021;-42
2021/05/05 08:36:29;;;;;;;5.18;1.48;;;;;;;;;;5040833;28;20025;-43
2021/05/05 08:38:56;;;;;;;2.72;1.67;;;;;;;;;;5039355;28;20596;-40
2021/05/05 08:41:21;;;;;;;4.70;2.50;;;;;;;;;;5040206;28;20496;-40
2021/05/05 08:43:47;;;;;;;14.85;4.97;;;;;;;;;;5041890;28;20068;-40
2021/05/05 08:46:13;;;;;;;6.50;5.25;;;;;;;;;;5040928;28;20045;-41
2021/05/05 08:48:39;;;;;;;7.80;6.60;;;;;;;;;;5043099;28;20561;-40
2021/05/05 08:51:08;;;;;;;9.65;5.32;;;;;;;;;;5040418;28;20025;-41
2021/05/05 08:53:33;;;;;;;9.15;4.57;;;;;;;;;;5039770;28;20531;-40
2021/05/05 08:55:58;;;;;;;5.20;3.67;;;;;;;;;;5039632;28;20029;-45
2021/05/05 08:58:24;;;;;;;7.30;5.00;;;;;;;;;;5040430;28;20486;-41
2021/05/05 09:00:49;;;;;;;9.10;4.82;;;;;;;;;;5041599;28;20087;-40
2021/05/05 09:03:14;;;;;;;4.32;3.20;;;;;;;;;;5045196;28;20120;-45
2021/05/05 09:05:50;;;;;;;6.78;3.75;;;;;;;;;;5044126;28;20063;-43
2021/05/05 09:08:15;;;;;;;4.13;2.80;;;;;;;;;;5041137;28;20029;-40
2021/05/05 09:10:58;;;;;;;6.00;3.17;;;;;;;;;;5040252;28;20651;-43
2021/05/05 09:13:42;;;;;;;4.65;3.20;;;;;;;;;;5037381;28;20036;-44
2021/05/05 09:16:08;;;;;;;3.22;2.83;;;;;;;;;;5036706;28;20053;-39
2021/05/05 09:18:56;;;;;;;10.15;3.50;;;;;;;;;;5040421;28;20006;-45
2021/05/05 09:21:25;;;;;;;6.38;2.40;;;;;;;;;;5027489;28;20562;-41
2021/05/05 09:23:50;;;;;;;6.15;2.25;;;;;;;;;;5032203;28;20037;-42
2021/05/05 09:26:35;;;;;;;3.25;2.15;;;;;;;;;;5038290;28;20150;-41
2021/05/05 09:29:00;;;;;;;2.95;2.03;;;;;;;;;;5038251;28;20029;-41
2021/05/05 09:31:36;;;;;;;6.60;2.25;;;;;;;;;;5040044;28;20074;-43
2021/05/05 09:34:01;;;;;;;2.67;1.90;;;;;;;;;;5034918;28;20028;-42
2021/05/05 09:36:27;;;;;;;5.13;2.28;;;;;;;;;;5039267;28;20435;-41
2021/05/05 09:38:52;;;;;;;2.80;2.30;;;;;;;;;;5036360;28;20029;-40
2021/05/05 09:41:18;;;;;;;16.50;12.13;;;;;;;;;;5037006;28;20025;-43
2021/05/05 09:43:43;;;;;;;6.45;3.92;;;;;;;;;;5036719;28;20036;-44
2021/05/05 09:46:29;;;;;;;8.60;2.53;;;;;;;;;;5040216;28;20055;-43
2021/05/05 09:49:14;;;;;;;4.50;2.47;;;;;;;;;;5029610;28;20033;-45
2021/05/05 09:51:56;;;;;;;6.43;2.13;;;;;;;;;;5039728;28;20029;-46
2021/05/05 09:54:25;;;;;;;9.25;2.63;;;;;;;;;;5035223;28;20032;-52
2021/05/05 09:56:50;;;;;;;2.60;1.85;;;;;;;;;;5039307;28;20108;-40
2021/05/05 09:59:15;;;;;;;3.15;2.30;;;;;;;;;;5035795;28;20104;-44
2021/05/05 10:01:40;;;;;;;3.55;1.73;;;;;;;;;;5038052;28;20362;-43
2021/05/05 10:04:07;;;;;;;12.10;2.67;;;;;;;;;;5034668;28;20053;-41
2021/05/05 10:06:33;;;;;;;1.55;0.98;;;;;;;;;;5034829;28;20163;-41
2021/05/05 10:08:59;;;;;;;4.75;1.42;;;;;;;;;;5037001;28;20413;-46
2021/05/05 10:11:25;;;;;;;1.20;0.80;;;;;;;;;;5033518;28;20048;-47
2021/05/05 10:13:52;;;;;;;5.22;2.03;;;;;;;;;;5034811;28;20072;-42
2021/05/05 10:16:19;;;;;;;2.20;1.02;;;;;;;;;;5040811;28;20068;-44
2021/05/05 10:18:45;;;;;;;9.02;0.95;;;;;;;;;;5032593;28;20021;-47
2021/05/05 10:21:13;;;;;;;3.50;1.10;;;;;;;;;;5040793;28;20086;-42
2021/05/05 10:23:39;;;;;;;1.95;1.00;;;;;;;;;;5035299;28;20112;-45
2021/05/05 10:26:04;;;;;;;2.53;1.15;;;;;;;;;;5037276;28;20128;-43
2021/05/05 10:28:30;;;;;;;4.75;3.13;;;;;;;;;;5037267;28;20030;-40
2021/05/05 10:30:56;;;;;;;7.70;2.38;;;;;;;;;;5038414;28;20033;-41
2021/05/05 10:33:26;;;;;;;4.68;2.08;;;;;;;;;;5036475;28;20021;-43
2021/05/05 10:35:51;;;;;;;2.90;1.10;;;;;;;;;;5034790;28;20280;-43
2021/05/05 10:38:35;;;;;;;4.22;1.85;;;;;;;;;;5033912;28;20549;-48
2021/05/05 10:41:09;;;;;;;6.95;2.33;;;;;;;;;;5037233;28;20045;-41
2021/05/05 10:43:54;;;;;;;5.35;2.03;;;;;;;;;;5036542;28;20473;-42
2021/05/05 10:46:32;;;;;;;6.05;3.22;;;;;;;;;;5035428;28;20057;-41
2021/05/05 10:49:02;;;;;;;4.57;2.58;;;;;;;;;;5033262;28;20028;-41
2021/05/05 10:51:46;;;;;;;2.63;1.05;;;;;;;;;;5018751;28;20037;-45
2021/05/05 10:54:12;;;;;;;5.97;2.70;;;;;;;;;;5036110;28;20028;-46
2021/05/05 10:56:37;;;;;;;2.30;1.00;;;;;;;;;;5036886;28;20029;-42
2021/05/05 10:59:07;;;;;;;4.45;1.67;;;;;;;;;;5037859;28;20014;-44
2021/05/05 11:01:36;;;;;;;2.00;1.42;;;;;;;;;;5036784;28;20033;-43
2021/05/05 11:04:02;;;;;;;1.75;1.23;;;;;;;;;;5033050;28;20549;-47
2021/05/05 11:06:34;;;;;;;5.25;2.80;;;;;;;;;;5034735;28;20120;-43
2021/05/05 11:09:12;;;;;;;1.83;1.25;;;;;;;;;;5035085;28;20082;-44
2021/05/05 11:11:41;;;;;;;1.95;0.95;;;;;;;;;;5036263;28;20041;-44
2021/05/05 11:14:08;;;;;;;2.83;1.30;;;;;;;;;;5034237;28;20105;-40
2021/05/05 11:16:51;;;;;;;6.47;4.22;;;;;;;;;;5036134;28;20032;-43
2021/05/05 11:19:35;;;;;;;3.13;1.27;;;;;;;;;;5036283;28;20032;-41
2021/05/05 11:22:00;;;;;;;1.85;0.75;;;;;;;;;;5037202;28;20033;-43
2021/05/05 11:24:26;;;;;;;1.58;0.80;;;;;;;;;;5034629;28;20028;-46
2021/05/05 11:26:52;;;;;;;5.85;2.13;;;;;;;;;;5031849;28;20045;-44
2021/05/05 11:29:28;;;;;;;1.65;0.90;;;;;;;;;;5038432;28;20039;-42
2021/05/05 11:31:54;;;;;;;7.00;2.42;;;;;;;;;;5036228;28;20021;-43
2021/05/05 11:34:23;;;;;;;2.25;1.45;;;;;;;;;;5033930;28;20512;-44
2021/05/05 11:37:02;;;;;;;10.93;1.70;;;;;;;;;;5038020;28;20013;-42
2021/05/05 11:39:28;;;;;;;1.02;0.73;;;;;;;;;;5037055;28;20017;-41
2021/05/05 11:41:54;;;;;;;1.58;1.05;;;;;;;;;;5038963;28;20481;-40
2021/05/05 11:44:33;;;;;;;3.03;0.90;;;;;;;;;;5041721;28;20176;-41
2021/05/05 11:46:59;;;;;;;1.17;0.85;;;;;;;;;;5039972;28;20049;-44
2021/05/05 11:49:32;;;;;;;1.42;0.85;;;;;;;;;;5044463;28;20025;-41
2021/05/05 11:51:57;;;;;;;3.63;1.75;;;;;;;;;;5038316;28;20029;-45
2021/05/05 11:54:28;;;;;;;4.28;1.02;;;;;;;;;;5039517;28;20021;-44
2021/05/05 11:56:53;;;;;;;;;;;;;;;;;;5038436;28;20544;-40
2021/05/05 11:59:24;;;;;;;5.88;1.85;;;;;;;;;;5041818;28;19995;-41
2021/05/05 12:01:49;;;;;;;1.50;0.93;;;;;;;;;;5041662;28;20072;-44
2021/05/05 12:04:15;;;;;;;4.45;1.08;;;;;;;;;;5040172;28;20052;-42
2021/05/05 12:06:49;;;;;;;2.20;1.10;;;;;;;;;;5039296;28;20040;-47
2021/05/05 12:09:22;;;;;;;1.58;0.63;;;;;;;;;;5036695;28;20025;-40
2021/05/05 12:11:47;;;;;;;4.88;0.90;;;;;;;;;;5037029;28;20072;-40
2021/05/05 12:14:33;;;;;;;2.15;1.30;;;;;;;;;;5039853;28;20022;-44
2021/05/05 12:17:11;;;;;;;0.77;0.60;;;;;;;;;;5036952;28;20043;-44
2021/05/05 12:19:36;;;;;;;1.52;1.05;;;;;;;;;;5040048;28;20052;-40
2021/05/05 12:22:10;;;;;;;1.55;1.17;;;;;;;;;;5039532;28;20025;-40
2021/05/05 12:24:36;;;;;;;4.00;1.17;;;;;;;;;;5035158;28;20559;-44
2021/05/05 12:27:06;;;;;;;9.52;1.55;;;;;;;;;;5038463;28;20032;-42
2021/05/05 12:29:31;;;;;;;3.63;1.52;;;;;;;;;;5038371;28;20029;-40
2021/05/05 12:31:57;;;;;;;3.45;1.05;;;;;;;;;;5032732;28;20041;-43
2021/05/05 12:34:22;;;;;;;1.75;0.82;;;;;;;;;;5033811;28;20093;-43
2021/05/05 12:36:48;;;;;;;1.30;0.70;;;;;;;;;;5028627;28;20569;-39
2021/05/05 12:39:16;;;;;;;2.67;0.95;;;;;;;;;;5035928;28;20029;-42
2021/05/05 12:41:43;;;;;;;4.05;1.20;;;;;;;;;;5037034;28;20048;-41
2021/05/05 12:44:08;;;;;;;3.05;1.67;;;;;;;;;;5038434;28;20104;-40
2021/05/05 12:46:54;;;;;;;1.65;0.80;;;;;;;;;;5040216;28;20149;-40
2021/05/05 12:49:20;;;;;;;5.22;2.95;;;;;;;;;;5037201;28;20068;-41
2021/05/05 12:51:45;;;;;;;1.83;1.05;;;;;;;;;;5037312;28;20568;-41
2021/05/05 12:54:18;;;;;;;2.30;0.90;;;;;;;;;;5030223;28;20099;-41
2021/05/05 12:56:48;;;;;;;3.53;1.10;;;;;;;;;;5039979;28;20086;-40
2021/05/05 12:59:14;;;;;;;16.55;0.85;;;;;;;;;;5040682;28;20021;-40
2021/05/05 13:01:40;;;;;;;1.08;0.60;;;;;;;;;;5036644;28;20033;-39
2021/05/05 13:04:05;;;;;;;1.48;0.93;;;;;;;;;;5035200;28;20083;-40
2021/05/05 13:06:37;;;;;;;4.18;1.45;;;;;;;;;;5037535;28;20402;-44
2021/05/05 13:09:08;;;;;;;4.88;1.33;;;;;;;;;;5037694;28;20052;-46
2021/05/05 13:11:41;;;;;;;11.02;1.27;;;;;;;;;;5035565;28;20037;-40
2021/05/05 13:14:12;;;;;;;7.22;0.95;;;;;;;;;;5039272;28;20014;-38
2021/05/05 13:16:48;;;;;;;4.47;0.40;;;;;;;;;;5039595;28;20028;-37
2021/05/05 13:32:33;;;;;;;3.97;0.90;;;;;;;;;;5034208;28;19913;-39
2021/05/05 13:35:18;;;;;;;15.05;2.60;;;;;;;;;;5032682;28;20071;-41
2021/05/05 13:37:52;;;;;;;2.25;1.23;;;;;;;;;;5037073;28;20013;-37
2021/05/05 13:40:18;;;;;;;2.92;0.75;;;;;;;;;;5037770;28;20053;-41
2021/05/05 13:42:43;;;;;;;3.42;1.25;;;;;;;;;;5032834;28;20063;-36
2021/05/05 13:45:09;;;;;;;5.55;1.77;;;;;;;;;;5038847;28;20036;-37
2021/05/05 13:47:43;;;;;;;12.13;1.02;;;;;;;;;;5021869;28;20484;-37
2021/05/05 13:50:09;;;;;;;0.93;0.57;;;;;;;;;;5037329;28;20652;-39
2021/05/05 13:52:34;;;;;;;0.90;0.45;;;;;;;;;;5036520;28;20148;-37
2021/05/05 13:54:59;;;;;;;8.32;2.55;;;;;;;;;;5035357;28;20043;-38
2021/05/05 13:57:25;;;;;;;13.07;1.85;;;;;;;;;;5036384;28;20091;-45
2021/05/05 13:59:50;;;;;;;3.15;0.73;;;;;;;;;;5033561;28;20165;-40
2021/05/05 14:02:15;;;;;;;7.25;1.80;;;;;;;;;;5036971;28;20031;-37
2021/05/05 14:04:41;;;;;;;2.55;1.38;;;;;;;;;;5033883;28;20124;-36
2021/05/05 14:07:08;;;;;;;0.90;0.50;;;;;;;;;;5038077;28;20024;-37
2021/05/05 14:09:34;;;;;;;15.05;4.22;;;;;;;;;;5038185;28;20460;-38
2021/05/05 14:11:59;;;;;;;4.10;1.63;;;;;;;;;;5036220;28;20116;-39
2021/05/05 14:14:25;;;;;;;3.40;1.63;;;;;;;;;;5034287;28;20025;-37
2021/05/05 14:16:54;;;;;;;0.40;0.30;;;;;;;;;;5039707;28;20033;-40
2021/05/05 14:19:20;;;;;;;4.10;1.20;;;;;;;;;;5036775;28;20041;-39
2021/05/05 14:21:47;;;;;;;5.85;1.77;;;;;;;;;;5036675;28;20667;-40
2021/05/05 14:24:14;;;;;;;12.27;1.63;;;;;;;;;;5034658;28;20047;-39
2021/05/05 14:26:40;;;;;;;12.85;1.67;;;;;;;;;;5035371;28;20075;-40
2021/05/05 14:29:05;;;;;;;4.53;1.65;;;;;;;;;;5036851;28;20053;-38
2021/05/05 14:31:31;;;;;;;2.45;0.98;;;;;;;;;;5037315;28;20120;-38
2021/05/05 14:33:56;;;;;;;4.95;1.13;;;;;;;;;;5033941;28;20489;-38
2021/05/05 14:36:21;;;;;;;5.07;1.85;;;;;;;;;;5040034;28;20466;-41
2021/05/05 14:38:48;;;;;;;0.90;0.65;;;;;;;;;;5033978;28;20033;-39
2021/05/05 14:41:19;;;;;;;4.22;1.33;;;;;;;;;;5038768;28;20037;-37
2021/05/05 14:43:56;;;;;;;;;;;;;;;;;;5038500;28;20139;-37
2021/05/05 14:48:47;;;;;;;2.67;0.93;;;;;;;;;;5036259;28;20025;-37
2021/05/05 14:51:13;;;;;;;2.42;0.70;;;;;;;;;;5035157;28;20112;-40
2021/05/05 14:53:38;;;;;;;3.20;1.85;;;;;;;;;;5033089;28;20049;-38
2021/05/05 14:56:04;;;;;;;1.98;0.50;;;;;;;;;;5034275;28;20029;-36
2021/05/05 14:58:35;;;;;;;3.78;1.50;;;;;;;;;;5034493;28;20020;-38
2021/05/05 15:01:00;;;;;;;2.92;0.93;;;;;;;;;;5037352;28;20565;-40
2021/05/05 15:03:29;;;;;;;2.33;0.68;;;;;;;;;;5035468;28;20108;-37